sensor_id;sensor_type;location;lat;lon;timestamp;P1;durP1;ratioP1;P2;durP2;ratioP2
8066;SDS011;4076;48.076;9.118;2022-08-03T00:01:17;4.23;;;3.93;;
8066;SDS011;4076;48.076;9.118;2022-08-03T00:03:43;3.60;;;3.30;;
8066;SDS011;4076;48.076;9.118;2022-08-03T00:06:09;4.10;;;3.80;;
8066;SDS011;4076;48.076;9.118;2022-08-03T00:08:35;3.03;;;2.83;;
8066;SDS011;4076;48.076;9.118;2022-08-03T00:11:00;3.43;;;3.23;;
8066;SDS011;4076;48.076;9.118;2022-08-03T00:13:26;3.80;;;3.50;;
8066;SDS011;4076;48.076;9.118;2022-08-03T00:15:52;3.73;;;3.43;;
8066;SDS011;4076;48.076;9.118;2022-08-03T00:18:18;4.40;;;4.00;;
8066;SDS011;4076;48.076;9.118;2022-08-03T00:20:44;2.97;;;2.77;;
8066;SDS011;4076;48.076;9.118;2022-08-03T00:23:09;2.90;;;2.73;;
8066;SDS011;4076;48.076;9.118;2022-08-03T00:25:35;4.27;;;3.87;;
8066;SDS011;4076;48.076;9.118;2022-08-03T00:28:02;4.20;;;4.00;;
8066;SDS011;4076;48.076;9.118;2022-08-03T00:30:28;2.73;;;2.53;;
8066;SDS011;4076;48.076;9.118;2022-08-03T00:32:55;3.87;;;3.47;;
8066;SDS011;4076;48.076;9.118;2022-08-03T00:35:21;3.20;;;3.00;;
8066;SDS011;4076;48.076;9.118;2022-08-03T00:37:46;2.80;;;2.60;;
8066;SDS011;4076;48.076;9.118;2022-08-03T00:40:12;3.30;;;2.70;;
8066;SDS011;4076;48.076;9.118;2022-08-03T00:42:49;3.20;;;3.00;;
8066;SDS011;4076;48.076;9.118;2022-08-03T00:45:18;3.47;;;3.17;;
8066;SDS011;4076;48.076;9.118;2022-08-03T00:47:46;4.77;;;4.47;;
8066;SDS011;4076;48.076;9.118;2022-08-03T00:50:12;3.67;;;3.47;;
8066;SDS011;4076;48.076;9.118;2022-08-03T00:52:38;3.73;;;3.53;;
8066;SDS011;4076;48.076;9.118;2022-08-03T00:55:04;3.30;;;3.10;;
8066;SDS011;4076;48.076;9.118;2022-08-03T00:57:30;3.63;;;3.43;;
8066;SDS011;4076;48.076;9.118;2022-08-03T00:59:56;6.90;;;3.90;;
8066;SDS011;4076;48.076;9.118;2022-08-03T01:02:24;3.37;;;3.17;;
8066;SDS011;4076;48.076;9.118;2022-08-03T01:04:50;5.10;;;4.70;;
8066;SDS011;4076;48.076;9.118;2022-08-03T01:07:18;5.57;;;4.00;;
8066;SDS011;4076;48.076;9.118;2022-08-03T01:18:33;3.33;;;2.90;;
8066;SDS011;4076;48.076;9.118;2022-08-03T01:29:45;4.10;;;3.80;;
8066;SDS011;4076;48.076;9.118;2022-08-03T01:32:20;4.30;;;4.03;;
8066;SDS011;4076;48.076;9.118;2022-08-03T01:34:50;2.90;;;2.70;;
8066;SDS011;4076;48.076;9.118;2022-08-03T01:37:23;4.93;;;3.30;;
8066;SDS011;4076;48.076;9.118;2022-08-03T01:39:55;3.60;;;3.37;;
8066;SDS011;4076;48.076;9.118;2022-08-03T01:42:23;3.67;;;3.47;;
8066;SDS011;4076;48.076;9.118;2022-08-03T01:44:50;3.30;;;3.00;;
8066;SDS011;4076;48.076;9.118;2022-08-03T01:47:19;4.13;;;3.73;;
8066;SDS011;4076;48.076;9.118;2022-08-03T01:49:46;3.50;;;3.30;;
8066;SDS011;4076;48.076;9.118;2022-08-03T01:52:14;3.27;;;3.07;;
8066;SDS011;4076;48.076;9.118;2022-08-03T01:54:43;3.50;;;3.30;;
8066;SDS011;4076;48.076;9.118;2022-08-03T01:57:12;4.20;;;3.80;;
8066;SDS011;4076;48.076;9.118;2022-08-03T01:59:39;3.80;;;3.50;;
8066;SDS011;4076;48.076;9.118;2022-08-03T02:02:06;4.40;;;4.10;;
8066;SDS011;4076;48.076;9.118;2022-08-03T02:04:34;4.00;;;3.80;;
8066;SDS011;4076;48.076;9.118;2022-08-03T02:07:02;3.67;;;3.47;;
8066;SDS011;4076;48.076;9.118;2022-08-03T02:09:28;2.73;;;2.53;;
8066;SDS011;4076;48.076;9.118;2022-08-03T02:11:55;4.50;;;4.00;;
8066;SDS011;4076;48.076;9.118;2022-08-03T02:14:22;5.73;;;4.13;;
8066;SDS011;4076;48.076;9.118;2022-08-03T02:16:49;3.90;;;3.70;;
8066;SDS011;4076;48.076;9.118;2022-08-03T02:19:15;3.93;;;3.63;;
8066;SDS011;4076;48.076;9.118;2022-08-03T02:21:43;4.13;;;3.70;;
8066;SDS011;4076;48.076;9.118;2022-08-03T02:24:10;4.00;;;3.70;;
8066;SDS011;4076;48.076;9.118;2022-08-03T02:26:36;3.20;;;3.00;;
8066;SDS011;4076;48.076;9.118;2022-08-03T02:29:06;3.10;;;2.90;;
8066;SDS011;4076;48.076;9.118;2022-08-03T02:31:39;4.03;;;3.83;;
8066;SDS011;4076;48.076;9.118;2022-08-03T02:34:07;4.70;;;4.30;;
8066;SDS011;4076;48.076;9.118;2022-08-03T02:36:37;3.97;;;3.73;;
8066;SDS011;4076;48.076;9.118;2022-08-03T02:39:05;4.17;;;3.87;;
8066;SDS011;4076;48.076;9.118;2022-08-03T02:41:37;3.50;;;3.20;;
8066;SDS011;4076;48.076;9.118;2022-08-03T02:44:11;3.57;;;3.37;;
8066;SDS011;4076;48.076;9.118;2022-08-03T02:46:38;3.70;;;3.50;;
8066;SDS011;4076;48.076;9.118;2022-08-03T02:49:08;4.60;;;4.30;;
8066;SDS011;4076;48.076;9.118;2022-08-03T02:51:35;3.43;;;3.23;;
8066;SDS011;4076;48.076;9.118;2022-08-03T02:54:03;3.40;;;3.20;;
8066;SDS011;4076;48.076;9.118;2022-08-03T02:56:30;4.37;;;3.97;;
8066;SDS011;4076;48.076;9.118;2022-08-03T02:58:57;4.03;;;3.73;;
8066;SDS011;4076;48.076;9.118;2022-08-03T03:01:24;3.70;;;3.50;;
8066;SDS011;4076;48.076;9.118;2022-08-03T03:03:51;3.97;;;3.67;;
8066;SDS011;4076;48.076;9.118;2022-08-03T03:06:19;2.87;;;2.67;;
8066;SDS011;4076;48.076;9.118;2022-08-03T03:08:46;4.13;;;3.83;;
8066;SDS011;4076;48.076;9.118;2022-08-03T03:11:13;3.40;;;3.20;;
8066;SDS011;4076;48.076;9.118;2022-08-03T03:13:41;3.33;;;3.13;;
8066;SDS011;4076;48.076;9.118;2022-08-03T03:16:08;6.37;;;3.27;;
8066;SDS011;4076;48.076;9.118;2022-08-03T03:18:37;4.50;;;4.10;;
8066;SDS011;4076;48.076;9.118;2022-08-03T03:21:03;5.10;;;4.80;;
8066;SDS011;4076;48.076;9.118;2022-08-03T03:23:31;5.70;;;5.40;;
8066;SDS011;4076;48.076;9.118;2022-08-03T03:26:03;3.07;;;2.87;;
8066;SDS011;4076;48.076;9.118;2022-08-03T03:28:30;3.57;;;3.27;;
8066;SDS011;4076;48.076;9.118;2022-08-03T03:30:56;2.90;;;2.70;;
8066;SDS011;4076;48.076;9.118;2022-08-03T03:33:22;3.00;;;2.80;;
8066;SDS011;4076;48.076;9.118;2022-08-03T03:35:48;3.17;;;2.97;;
8066;SDS011;4076;48.076;9.118;2022-08-03T03:38:15;3.73;;;3.47;;
8066;SDS011;4076;48.076;9.118;2022-08-03T03:40:41;3.43;;;3.13;;
8066;SDS011;4076;48.076;9.118;2022-08-03T03:43:08;3.37;;;3.10;;
8066;SDS011;4076;48.076;9.118;2022-08-03T03:45:34;3.63;;;3.43;;
8066;SDS011;4076;48.076;9.118;2022-08-03T03:48:02;4.00;;;3.70;;
8066;SDS011;4076;48.076;9.118;2022-08-03T03:50:30;4.20;;;3.90;;
8066;SDS011;4076;48.076;9.118;2022-08-03T03:52:57;4.40;;;4.10;;
8066;SDS011;4076;48.076;9.118;2022-08-03T03:55:23;3.70;;;3.50;;
8066;SDS011;4076;48.076;9.118;2022-08-03T03:57:48;3.90;;;3.57;;
8066;SDS011;4076;48.076;9.118;2022-08-03T04:00:15;5.70;;;5.20;;
8066;SDS011;4076;48.076;9.118;2022-08-03T04:02:42;5.70;;;4.33;;
8066;SDS011;4076;48.076;9.118;2022-08-03T04:05:08;3.30;;;3.10;;
8066;SDS011;4076;48.076;9.118;2022-08-03T04:08:00;4.03;;;3.60;;
8066;SDS011;4076;48.076;9.118;2022-08-03T04:14:00;2.93;;;2.73;;
8066;SDS011;4076;48.076;9.118;2022-08-03T04:16:31;5.00;;;4.50;;
8066;SDS011;4076;48.076;9.118;2022-08-03T04:19:02;3.60;;;3.30;;
8066;SDS011;4076;48.076;9.118;2022-08-03T04:21:32;4.13;;;3.80;;
8066;SDS011;4076;48.076;9.118;2022-08-03T04:24:00;5.37;;;4.87;;
8066;SDS011;4076;48.076;9.118;2022-08-03T04:26:32;3.70;;;3.50;;
8066;SDS011;4076;48.076;9.118;2022-08-03T04:29:00;4.13;;;3.93;;
8066;SDS011;4076;48.076;9.118;2022-08-03T04:31:26;3.47;;;3.27;;
8066;SDS011;4076;48.076;9.118;2022-08-03T04:33:53;3.70;;;3.50;;
8066;SDS011;4076;48.076;9.118;2022-08-03T04:36:20;3.50;;;3.20;;
8066;SDS011;4076;48.076;9.118;2022-08-03T04:41:28;3.67;;;3.37;;
8066;SDS011;4076;48.076;9.118;2022-08-03T04:43:56;2.53;;;2.33;;
8066;SDS011;4076;48.076;9.118;2022-08-03T04:46:25;5.13;;;3.47;;
8066;SDS011;4076;48.076;9.118;2022-08-03T04:48:58;3.80;;;3.50;;
8066;SDS011;4076;48.076;9.118;2022-08-03T04:51:24;4.03;;;3.73;;
8066;SDS011;4076;48.076;9.118;2022-08-03T04:53:50;4.17;;;3.93;;
8066;SDS011;4076;48.076;9.118;2022-08-03T04:56:16;3.30;;;3.10;;
8066;SDS011;4076;48.076;9.118;2022-08-03T04:58:41;3.03;;;2.83;;
8066;SDS011;4076;48.076;9.118;2022-08-03T05:01:07;4.50;;;4.07;;
8066;SDS011;4076;48.076;9.118;2022-08-03T05:03:32;3.83;;;3.47;;
8066;SDS011;4076;48.076;9.118;2022-08-03T05:05:58;3.27;;;3.07;;
8066;SDS011;4076;48.076;9.118;2022-08-03T05:08:23;3.50;;;3.20;;
8066;SDS011;4076;48.076;9.118;2022-08-03T05:10:49;3.47;;;3.17;;
8066;SDS011;4076;48.076;9.118;2022-08-03T05:13:15;2.93;;;2.80;;
8066;SDS011;4076;48.076;9.118;2022-08-03T05:15:40;3.47;;;3.17;;
8066;SDS011;4076;48.076;9.118;2022-08-03T05:18:07;3.30;;;3.10;;
8066;SDS011;4076;48.076;9.118;2022-08-03T05:20:32;4.13;;;3.83;;
8066;SDS011;4076;48.076;9.118;2022-08-03T05:22:58;2.47;;;2.27;;
8066;SDS011;4076;48.076;9.118;2022-08-03T05:25:25;2.00;;;1.90;;
8066;SDS011;4076;48.076;9.118;2022-08-03T05:27:52;2.60;;;2.40;;
8066;SDS011;4076;48.076;9.118;2022-08-03T05:30:17;3.83;;;3.53;;
8066;SDS011;4076;48.076;9.118;2022-08-03T05:32:43;2.70;;;2.53;;
8066;SDS011;4076;48.076;9.118;2022-08-03T05:35:08;3.00;;;2.80;;
8066;SDS011;4076;48.076;9.118;2022-08-03T05:37:34;3.10;;;2.90;;
8066;SDS011;4076;48.076;9.118;2022-08-03T05:39:59;2.63;;;2.50;;
8066;SDS011;4076;48.076;9.118;2022-08-03T05:42:25;2.10;;;2.00;;
8066;SDS011;4076;48.076;9.118;2022-08-03T05:44:50;3.90;;;3.70;;
8066;SDS011;4076;48.076;9.118;2022-08-03T05:47:16;2.67;;;2.50;;
8066;SDS011;4076;48.076;9.118;2022-08-03T05:49:42;2.80;;;2.60;;
8066;SDS011;4076;48.076;9.118;2022-08-03T05:52:07;3.90;;;2.80;;
8066;SDS011;4076;48.076;9.118;2022-08-03T05:54:33;2.23;;;2.13;;
8066;SDS011;4076;48.076;9.118;2022-08-03T05:56:58;2.13;;;1.90;;
8066;SDS011;4076;48.076;9.118;2022-08-03T05:59:24;2.40;;;2.20;;
8066;SDS011;4076;48.076;9.118;2022-08-03T06:01:50;2.37;;;2.17;;
8066;SDS011;4076;48.076;9.118;2022-08-03T06:04:15;2.83;;;2.67;;
8066;SDS011;4076;48.076;9.118;2022-08-03T06:06:41;4.10;;;3.80;;
8066;SDS011;4076;48.076;9.118;2022-08-03T06:09:07;1.80;;;1.70;;
8066;SDS011;4076;48.076;9.118;2022-08-03T06:11:34;2.67;;;1.97;;
8066;SDS011;4076;48.076;9.118;2022-08-03T06:14:00;2.90;;;2.77;;
8066;SDS011;4076;48.076;9.118;2022-08-03T06:16:26;2.70;;;2.50;;
8066;SDS011;4076;48.076;9.118;2022-08-03T06:18:51;2.63;;;2.43;;
8066;SDS011;4076;48.076;9.118;2022-08-03T06:21:17;3.40;;;1.67;;
8066;SDS011;4076;48.076;9.118;2022-08-03T06:23:43;2.73;;;2.63;;
8066;SDS011;4076;48.076;9.118;2022-08-03T06:26:09;2.40;;;2.23;;
8066;SDS011;4076;48.076;9.118;2022-08-03T06:28:35;2.20;;;2.10;;
8066;SDS011;4076;48.076;9.118;2022-08-03T06:31:01;3.10;;;2.90;;
8066;SDS011;4076;48.076;9.118;2022-08-03T06:33:27;3.03;;;2.83;;
8066;SDS011;4076;48.076;9.118;2022-08-03T06:35:53;2.47;;;2.37;;
8066;SDS011;4076;48.076;9.118;2022-08-03T06:38:18;3.60;;;3.40;;
8066;SDS011;4076;48.076;9.118;2022-08-03T06:40:44;2.43;;;2.27;;
8066;SDS011;4076;48.076;9.118;2022-08-03T06:43:10;1.90;;;1.80;;
8066;SDS011;4076;48.076;9.118;2022-08-03T06:45:35;2.30;;;2.20;;
8066;SDS011;4076;48.076;9.118;2022-08-03T06:48:05;2.43;;;2.23;;
8066;SDS011;4076;48.076;9.118;2022-08-03T06:50:35;2.40;;;2.30;;
8066;SDS011;4076;48.076;9.118;2022-08-03T06:53:05;3.00;;;2.80;;
8066;SDS011;4076;48.076;9.118;2022-08-03T06:55:31;2.33;;;2.20;;
8066;SDS011;4076;48.076;9.118;2022-08-03T06:57:56;3.03;;;2.83;;
8066;SDS011;4076;48.076;9.118;2022-08-03T07:00:22;2.53;;;2.43;;
8066;SDS011;4076;48.076;9.118;2022-08-03T07:02:48;2.20;;;2.10;;
8066;SDS011;4076;48.076;9.118;2022-08-03T07:05:14;2.87;;;2.67;;
8066;SDS011;4076;48.076;9.118;2022-08-03T07:07:40;1.93;;;1.83;;
8066;SDS011;4076;48.076;9.118;2022-08-03T07:10:07;2.10;;;2.00;;
8066;SDS011;4076;48.076;9.118;2022-08-03T07:12:33;3.00;;;2.80;;
8066;SDS011;4076;48.076;9.118;2022-08-03T07:15:00;2.30;;;2.10;;
8066;SDS011;4076;48.076;9.118;2022-08-03T07:17:26;3.00;;;2.77;;
8066;SDS011;4076;48.076;9.118;2022-08-03T07:19:53;2.50;;;2.30;;
8066;SDS011;4076;48.076;9.118;2022-08-03T07:22:18;2.73;;;2.63;;
8066;SDS011;4076;48.076;9.118;2022-08-03T07:24:44;2.50;;;2.40;;
8066;SDS011;4076;48.076;9.118;2022-08-03T07:27:11;3.20;;;2.80;;
8066;SDS011;4076;48.076;9.118;2022-08-03T07:29:37;1.80;;;1.70;;
8066;SDS011;4076;48.076;9.118;2022-08-03T07:32:03;2.37;;;2.20;;
8066;SDS011;4076;48.076;9.118;2022-08-03T07:34:29;4.20;;;3.90;;
8066;SDS011;4076;48.076;9.118;2022-08-03T07:36:54;2.70;;;2.50;;
8066;SDS011;4076;48.076;9.118;2022-08-03T07:39:20;2.37;;;2.27;;
8066;SDS011;4076;48.076;9.118;2022-08-03T07:41:46;2.23;;;2.13;;
8066;SDS011;4076;48.076;9.118;2022-08-03T07:44:14;2.57;;;2.47;;
8066;SDS011;4076;48.076;9.118;2022-08-03T07:46:39;2.60;;;2.50;;
8066;SDS011;4076;48.076;9.118;2022-08-03T07:49:05;2.90;;;2.70;;
8066;SDS011;4076;48.076;9.118;2022-08-03T07:51:30;2.63;;;2.43;;
8066;SDS011;4076;48.076;9.118;2022-08-03T07:53:56;2.13;;;2.03;;
8066;SDS011;4076;48.076;9.118;2022-08-03T07:56:22;3.70;;;2.70;;
8066;SDS011;4076;48.076;9.118;2022-08-03T07:58:49;2.53;;;2.43;;
8066;SDS011;4076;48.076;9.118;2022-08-03T08:01:15;2.70;;;2.50;;
8066;SDS011;4076;48.076;9.118;2022-08-03T08:03:43;2.33;;;2.23;;
8066;SDS011;4076;48.076;9.118;2022-08-03T08:06:09;3.20;;;3.03;;
8066;SDS011;4076;48.076;9.118;2022-08-03T08:08:35;3.40;;;3.20;;
8066;SDS011;4076;48.076;9.118;2022-08-03T08:11:02;2.83;;;2.70;;
8066;SDS011;4076;48.076;9.118;2022-08-03T08:13:27;3.20;;;3.10;;
8066;SDS011;4076;48.076;9.118;2022-08-03T08:15:53;2.77;;;2.60;;
8066;SDS011;4076;48.076;9.118;2022-08-03T08:18:18;4.03;;;2.53;;
8066;SDS011;4076;48.076;9.118;2022-08-03T08:20:44;2.10;;;2.00;;
8066;SDS011;4076;48.076;9.118;2022-08-03T08:23:10;2.00;;;1.80;;
8066;SDS011;4076;48.076;9.118;2022-08-03T08:25:35;2.30;;;2.20;;
8066;SDS011;4076;48.076;9.118;2022-08-03T08:28:01;2.13;;;2.03;;
8066;SDS011;4076;48.076;9.118;2022-08-03T08:30:28;2.40;;;2.30;;
8066;SDS011;4076;48.076;9.118;2022-08-03T08:32:54;2.50;;;2.40;;
8066;SDS011;4076;48.076;9.118;2022-08-03T08:35:21;2.17;;;2.07;;
8066;SDS011;4076;48.076;9.118;2022-08-03T08:37:47;2.20;;;2.10;;
8066;SDS011;4076;48.076;9.118;2022-08-03T08:40:13;3.80;;;3.00;;
8066;SDS011;4076;48.076;9.118;2022-08-03T08:42:39;1.97;;;1.87;;
8066;SDS011;4076;48.076;9.118;2022-08-03T08:45:06;2.37;;;2.10;;
8066;SDS011;4076;48.076;9.118;2022-08-03T08:47:33;2.73;;;2.63;;
8066;SDS011;4076;48.076;9.118;2022-08-03T08:50:01;2.80;;;2.70;;
8066;SDS011;4076;48.076;9.118;2022-08-03T08:52:28;2.67;;;2.57;;
8066;SDS011;4076;48.076;9.118;2022-08-03T08:54:56;3.80;;;3.70;;
8066;SDS011;4076;48.076;9.118;2022-08-03T08:57:24;3.00;;;2.90;;
8066;SDS011;4076;48.076;9.118;2022-08-03T08:59:54;3.47;;;3.38;;
8066;SDS011;4076;48.076;9.118;2022-08-03T09:02:21;3.42;;;3.33;;
8066;SDS011;4076;48.076;9.118;2022-08-03T09:04:48;4.53;;;4.32;;
8066;SDS011;4076;48.076;9.118;2022-08-03T09:07:14;3.75;;;3.65;;
8066;SDS011;4076;48.076;9.118;2022-08-03T09:09:40;4.30;;;4.20;;
8066;SDS011;4076;48.076;9.118;2022-08-03T09:12:06;4.07;;;3.97;;
8066;SDS011;4076;48.076;9.118;2022-08-03T09:14:32;5.20;;;5.10;;
8066;SDS011;4076;48.076;9.118;2022-08-03T09:16:59;4.10;;;4.00;;
8066;SDS011;4076;48.076;9.118;2022-08-03T09:19:26;4.72;;;4.53;;
8066;SDS011;4076;48.076;9.118;2022-08-03T09:22:35;5.32;;;5.22;;
8066;SDS011;4076;48.076;9.118;2022-08-03T09:24:55;5.50;;;5.30;;
8066;SDS011;4076;48.076;9.118;2022-08-03T09:27:27;5.15;;;5.03;;
8066;SDS011;4076;48.076;9.118;2022-08-03T09:29:54;5.97;;;5.88;;
8066;SDS011;4076;48.076;9.118;2022-08-03T09:32:19;6.13;;;5.93;;
8066;SDS011;4076;48.076;9.118;2022-08-03T09:34:49;4.90;;;4.80;;
8066;SDS011;4076;48.076;9.118;2022-08-03T09:37:16;5.28;;;5.18;;
8066;SDS011;4076;48.076;9.118;2022-08-03T09:39:44;6.00;;;5.78;;
8066;SDS011;4076;48.076;9.118;2022-08-03T09:42:11;5.13;;;4.93;;
8066;SDS011;4076;48.076;9.118;2022-08-03T09:44:43;4.80;;;4.60;;
8066;SDS011;4076;48.076;9.118;2022-08-03T09:47:14;5.13;;;4.93;;
8066;SDS011;4076;48.076;9.118;2022-08-03T09:49:41;4.85;;;4.75;;
8066;SDS011;4076;48.076;9.118;2022-08-03T09:52:20;4.07;;;3.90;;
8066;SDS011;4076;48.076;9.118;2022-08-03T09:54:53;4.15;;;4.05;;
8066;SDS011;4076;48.076;9.118;2022-08-03T09:57:23;4.70;;;4.60;;
8066;SDS011;4076;48.076;9.118;2022-08-03T09:59:50;4.05;;;3.85;;
8066;SDS011;4076;48.076;9.118;2022-08-03T10:02:21;3.63;;;3.50;;
8066;SDS011;4076;48.076;9.118;2022-08-03T10:04:51;2.85;;;2.75;;
8066;SDS011;4076;48.076;9.118;2022-08-03T10:07:18;2.80;;;2.70;;
8066;SDS011;4076;48.076;9.118;2022-08-03T10:09:56;2.53;;;2.43;;
8066;SDS011;4076;48.076;9.118;2022-08-03T10:12:24;2.53;;;2.37;;
8066;SDS011;4076;48.076;9.118;2022-08-03T10:14:50;2.60;;;2.50;;
8066;SDS011;4076;48.076;9.118;2022-08-03T10:17:17;2.20;;;2.10;;
8066;SDS011;4076;48.076;9.118;2022-08-03T10:19:43;2.50;;;2.40;;
8066;SDS011;4076;48.076;9.118;2022-08-03T10:22:10;2.13;;;2.03;;
8066;SDS011;4076;48.076;9.118;2022-08-03T10:24:36;2.43;;;2.33;;
8066;SDS011;4076;48.076;9.118;2022-08-03T10:27:05;2.40;;;2.30;;
8066;SDS011;4076;48.076;9.118;2022-08-03T10:29:34;4.30;;;2.90;;
8066;SDS011;4076;48.076;9.118;2022-08-03T10:32:03;3.47;;;2.77;;
8066;SDS011;4076;48.076;9.118;2022-08-03T10:34:34;2.60;;;2.50;;
8066;SDS011;4076;48.076;9.118;2022-08-03T10:37:06;2.67;;;2.43;;
8066;SDS011;4076;48.076;9.118;2022-08-03T10:39:35;2.67;;;2.57;;
8066;SDS011;4076;48.076;9.118;2022-08-03T10:42:01;3.13;;;2.93;;
8066;SDS011;4076;48.076;9.118;2022-08-03T10:44:32;2.10;;;2.00;;
8066;SDS011;4076;48.076;9.118;2022-08-03T10:47:03;2.47;;;2.37;;
8066;SDS011;4076;48.076;9.118;2022-08-03T10:49:29;2.40;;;2.30;;
8066;SDS011;4076;48.076;9.118;2022-08-03T10:51:56;2.53;;;2.43;;
8066;SDS011;4076;48.076;9.118;2022-08-03T11:00:07;2.33;;;2.13;;
8066;SDS011;4076;48.076;9.118;2022-08-03T11:05:30;2.63;;;2.40;;
8066;SDS011;4076;48.076;9.118;2022-08-03T11:10:56;2.83;;;2.70;;
8066;SDS011;4076;48.076;9.118;2022-08-03T11:13:24;2.77;;;2.67;;
8066;SDS011;4076;48.076;9.118;2022-08-03T11:15:56;2.13;;;2.03;;
8066;SDS011;4076;48.076;9.118;2022-08-03T11:18:23;2.83;;;2.67;;
8066;SDS011;4076;48.076;9.118;2022-08-03T11:20:50;3.03;;;2.83;;
8066;SDS011;4076;48.076;9.118;2022-08-03T11:26:16;2.60;;;2.40;;
8066;SDS011;4076;48.076;9.118;2022-08-03T11:28:45;3.13;;;3.03;;
8066;SDS011;4076;48.076;9.118;2022-08-03T11:36:27;2.60;;;2.50;;
8066;SDS011;4076;48.076;9.118;2022-08-03T11:39:11;2.07;;;1.97;;
8066;SDS011;4076;48.076;9.118;2022-08-03T11:41:38;1.80;;;1.70;;
8066;SDS011;4076;48.076;9.118;2022-08-03T11:44:03;2.57;;;2.37;;
8066;SDS011;4076;48.076;9.118;2022-08-03T11:46:29;2.77;;;2.57;;
8066;SDS011;4076;48.076;9.118;2022-08-03T11:49:05;2.70;;;2.20;;
8066;SDS011;4076;48.076;9.118;2022-08-03T11:51:31;2.23;;;2.13;;
8066;SDS011;4076;48.076;9.118;2022-08-03T11:53:57;2.03;;;1.93;;
8066;SDS011;4076;48.076;9.118;2022-08-03T11:56:25;5.87;;;3.57;;
8066;SDS011;4076;48.076;9.118;2022-08-03T11:58:53;2.47;;;2.00;;
8066;SDS011;4076;48.076;9.118;2022-08-03T12:01:20;2.93;;;2.73;;
8066;SDS011;4076;48.076;9.118;2022-08-03T12:03:47;2.13;;;2.03;;
8066;SDS011;4076;48.076;9.118;2022-08-03T12:06:13;2.70;;;2.57;;
8066;SDS011;4076;48.076;9.118;2022-08-03T12:08:40;2.30;;;2.20;;
8066;SDS011;4076;48.076;9.118;2022-08-03T12:11:08;2.17;;;2.07;;
8066;SDS011;4076;48.076;9.118;2022-08-03T12:13:39;2.10;;;2.00;;
8066;SDS011;4076;48.076;9.118;2022-08-03T12:16:05;2.63;;;2.53;;
8066;SDS011;4076;48.076;9.118;2022-08-03T12:18:31;3.10;;;2.90;;
8066;SDS011;4076;48.076;9.118;2022-08-03T12:21:07;2.10;;;2.00;;
8066;SDS011;4076;48.076;9.118;2022-08-03T12:23:35;2.47;;;2.27;;
8066;SDS011;4076;48.076;9.118;2022-08-03T12:26:02;2.10;;;2.00;;
8066;SDS011;4076;48.076;9.118;2022-08-03T12:28:30;2.10;;;2.00;;
8066;SDS011;4076;48.076;9.118;2022-08-03T12:30:59;2.33;;;2.13;;
8066;SDS011;4076;48.076;9.118;2022-08-03T12:33:26;1.93;;;1.83;;
8066;SDS011;4076;48.076;9.118;2022-08-03T12:36:05;2.90;;;2.57;;
8066;SDS011;4076;48.076;9.118;2022-08-03T12:38:33;2.43;;;2.20;;
8066;SDS011;4076;48.076;9.118;2022-08-03T12:43:29;2.20;;;2.00;;
8066;SDS011;4076;48.076;9.118;2022-08-03T12:46:11;2.53;;;2.20;;
8066;SDS011;4076;48.076;9.118;2022-08-03T12:51:22;2.47;;;2.37;;
8066;SDS011;4076;48.076;9.118;2022-08-03T12:53:52;2.00;;;1.90;;
8066;SDS011;4076;48.076;9.118;2022-08-03T12:56:18;2.10;;;2.00;;
8066;SDS011;4076;48.076;9.118;2022-08-03T12:58:44;2.10;;;1.90;;
8066;SDS011;4076;48.076;9.118;2022-08-03T13:01:11;2.83;;;2.47;;
8066;SDS011;4076;48.076;9.118;2022-08-03T13:03:38;2.10;;;2.00;;
8066;SDS011;4076;48.076;9.118;2022-08-03T13:06:12;2.10;;;1.90;;
8066;SDS011;4076;48.076;9.118;2022-08-03T13:08:48;2.07;;;1.97;;
8066;SDS011;4076;48.076;9.118;2022-08-03T13:11:25;2.17;;;2.07;;
8066;SDS011;4076;48.076;9.118;2022-08-03T13:13:52;2.00;;;1.90;;
8066;SDS011;4076;48.076;9.118;2022-08-03T13:16:19;1.77;;;1.67;;
8066;SDS011;4076;48.076;9.118;2022-08-03T13:18:46;2.17;;;2.00;;
8066;SDS011;4076;48.076;9.118;2022-08-03T13:21:16;2.30;;;2.20;;
8066;SDS011;4076;48.076;9.118;2022-08-03T13:23:42;1.80;;;1.70;;
8066;SDS011;4076;48.076;9.118;2022-08-03T13:26:08;1.80;;;1.70;;
8066;SDS011;4076;48.076;9.118;2022-08-03T13:28:34;1.83;;;1.73;;
8066;SDS011;4076;48.076;9.118;2022-08-03T13:31:00;2.00;;;1.90;;
8066;SDS011;4076;48.076;9.118;2022-08-03T13:33:26;3.27;;;2.97;;
8066;SDS011;4076;48.076;9.118;2022-08-03T13:35:52;2.93;;;2.73;;
8066;SDS011;4076;48.076;9.118;2022-08-03T13:38:18;1.90;;;1.80;;
8066;SDS011;4076;48.076;9.118;2022-08-03T13:40:44;2.00;;;1.90;;
8066;SDS011;4076;48.076;9.118;2022-08-03T13:43:09;2.40;;;2.20;;
8066;SDS011;4076;48.076;9.118;2022-08-03T13:45:36;3.20;;;3.00;;
8066;SDS011;4076;48.076;9.118;2022-08-03T13:48:02;1.93;;;1.83;;
8066;SDS011;4076;48.076;9.118;2022-08-03T13:50:27;2.20;;;2.10;;
8066;SDS011;4076;48.076;9.118;2022-08-03T13:52:54;2.07;;;1.97;;
8066;SDS011;4076;48.076;9.118;2022-08-03T13:55:19;2.77;;;2.67;;
8066;SDS011;4076;48.076;9.118;2022-08-03T13:57:45;2.30;;;2.10;;
8066;SDS011;4076;48.076;9.118;2022-08-03T14:00:10;2.27;;;2.17;;
8066;SDS011;4076;48.076;9.118;2022-08-03T14:02:36;1.97;;;1.87;;
8066;SDS011;4076;48.076;9.118;2022-08-03T14:05:02;3.00;;;2.17;;
8066;SDS011;4076;48.076;9.118;2022-08-03T14:07:28;2.13;;;2.03;;
8066;SDS011;4076;48.076;9.118;2022-08-03T14:09:53;1.97;;;1.87;;
8066;SDS011;4076;48.076;9.118;2022-08-03T14:12:19;2.10;;;2.00;;
8066;SDS011;4076;48.076;9.118;2022-08-03T14:14:44;1.90;;;1.80;;
8066;SDS011;4076;48.076;9.118;2022-08-03T14:17:10;4.30;;;2.10;;
8066;SDS011;4076;48.076;9.118;2022-08-03T14:19:35;2.17;;;2.07;;
8066;SDS011;4076;48.076;9.118;2022-08-03T14:22:01;2.07;;;1.97;;
8066;SDS011;4076;48.076;9.118;2022-08-03T14:24:27;2.67;;;2.10;;
8066;SDS011;4076;48.076;9.118;2022-08-03T14:26:53;2.80;;;2.60;;
8066;SDS011;4076;48.076;9.118;2022-08-03T14:29:19;2.30;;;2.20;;
8066;SDS011;4076;48.076;9.118;2022-08-03T14:31:44;2.13;;;2.03;;
8066;SDS011;4076;48.076;9.118;2022-08-03T14:34:10;2.53;;;2.33;;
8066;SDS011;4076;48.076;9.118;2022-08-03T14:36:35;2.10;;;2.00;;
8066;SDS011;4076;48.076;9.118;2022-08-03T14:39:01;3.07;;;2.33;;
8066;SDS011;4076;48.076;9.118;2022-08-03T14:41:26;3.13;;;2.93;;
8066;SDS011;4076;48.076;9.118;2022-08-03T14:43:52;2.30;;;2.10;;
8066;SDS011;4076;48.076;9.118;2022-08-03T14:46:18;2.37;;;2.17;;
8066;SDS011;4076;48.076;9.118;2022-08-03T14:48:44;2.30;;;2.17;;
8066;SDS011;4076;48.076;9.118;2022-08-03T14:51:09;1.90;;;1.80;;
8066;SDS011;4076;48.076;9.118;2022-08-03T14:53:35;2.00;;;1.90;;
8066;SDS011;4076;48.076;9.118;2022-08-03T14:56:01;2.30;;;2.10;;
8066;SDS011;4076;48.076;9.118;2022-08-03T14:58:26;2.53;;;2.33;;
8066;SDS011;4076;48.076;9.118;2022-08-03T15:00:52;2.13;;;2.03;;
8066;SDS011;4076;48.076;9.118;2022-08-03T15:03:19;2.33;;;2.23;;
8066;SDS011;4076;48.076;9.118;2022-08-03T15:05:48;2.17;;;2.07;;
8066;SDS011;4076;48.076;9.118;2022-08-03T15:08:19;1.93;;;1.83;;
8066;SDS011;4076;48.076;9.118;2022-08-03T15:10:45;2.03;;;1.93;;
8066;SDS011;4076;48.076;9.118;2022-08-03T15:13:11;2.40;;;2.13;;
8066;SDS011;4076;48.076;9.118;2022-08-03T15:15:37;1.80;;;1.70;;
8066;SDS011;4076;48.076;9.118;2022-08-03T15:18:03;2.20;;;2.10;;
8066;SDS011;4076;48.076;9.118;2022-08-03T15:20:28;3.80;;;2.30;;
8066;SDS011;4076;48.076;9.118;2022-08-03T15:22:54;2.37;;;2.27;;
8066;SDS011;4076;48.076;9.118;2022-08-03T15:25:19;2.33;;;2.23;;
8066;SDS011;4076;48.076;9.118;2022-08-03T15:27:45;2.20;;;2.10;;
8066;SDS011;4076;48.076;9.118;2022-08-03T15:30:10;2.57;;;2.40;;
8066;SDS011;4076;48.076;9.118;2022-08-03T15:32:36;2.00;;;1.90;;
8066;SDS011;4076;48.076;9.118;2022-08-03T15:35:02;2.33;;;2.03;;
8066;SDS011;4076;48.076;9.118;2022-08-03T15:37:28;5.50;;;3.27;;
8066;SDS011;4076;48.076;9.118;2022-08-03T15:39:53;2.73;;;2.63;;
8066;SDS011;4076;48.076;9.118;2022-08-03T15:42:19;3.57;;;3.27;;
8066;SDS011;4076;48.076;9.118;2022-08-03T15:44:44;2.50;;;2.40;;
8066;SDS011;4076;48.076;9.118;2022-08-03T15:47:10;2.93;;;2.00;;
8066;SDS011;4076;48.076;9.118;2022-08-03T15:49:35;2.90;;;2.80;;
8066;SDS011;4076;48.076;9.118;2022-08-03T15:52:01;2.53;;;2.33;;
8066;SDS011;4076;48.076;9.118;2022-08-03T15:54:27;3.67;;;2.03;;
8066;SDS011;4076;48.076;9.118;2022-08-03T15:56:52;2.53;;;2.43;;
8066;SDS011;4076;48.076;9.118;2022-08-03T15:59:18;2.00;;;1.90;;
8066;SDS011;4076;48.076;9.118;2022-08-03T16:01:44;2.77;;;2.57;;
8066;SDS011;4076;48.076;9.118;2022-08-03T16:04:10;2.37;;;2.27;;